Time;durP1;ratioP1;P1;durP2;ratioP2;P2;SDS_P1;SDS_P2;PMS_P1;PMS_P2;Temp;Humidity;BMP_temperature;BMP_pressure;BME280_temperature;BME280_humidity;BME280_pressure;Samples;Min_cycle;Max_cycle;Signal;HPM_P1;HPM_P2
2023/04/09 00:01:19;;;;;;;;;;;;;;;6.99;73.71;98690.88;5088818;28;19930;-61
2023/04/09 00:03:49;;;;;;;;;;;;;;;6.97;74.02;98696.50;5102566;28;19923;-61
2023/04/09 00:06:17;;;;;;;;;;;;;;;7.04;73.67;98696.28;5089846;28;21565;-60
2023/04/09 00:08:45;;;;;;;;;;;;;;;7.19;72.92;98690.88;5090346;28;19924;-60
2023/04/09 00:11:12;;;;;;;;;;;;;;;7.20;72.64;98695.19;5092761;28;19928;-61
2023/04/09 00:13:40;;;;;;;;;;;;;;;7.17;73.00;98686.81;5096072;27;19923;-60
2023/04/09 00:16:08;;;;;;;;;;;;;;;7.15;72.80;98695.19;5109319;27;20325;-60
2023/04/09 00:18:36;;;;;;;;;;;;;;;7.17;72.67;98686.81;5109795;28;19931;-60
2023/04/09 00:21:07;;;;;;;;;;;;;;;7.26;72.40;98691.41;5101201;28;19932;-63
2023/04/09 00:23:35;;;;;;;;;;;;;;;7.21;72.20;98682.50;5100036;28;19938;-60
2023/04/09 00:26:03;;;;;;;;;;;;;;;7.13;72.72;98689.22;5090044;28;20066;-60
2023/04/09 00:28:31;;;;;;;;;;;;;;;7.21;72.35;98686.00;5081636;28;20365;-60
2023/04/09 00:30:59;;;;;;;;;;;;;;;7.21;72.24;98691.41;5069374;28;19925;-61
2023/04/09 00:33:27;;;;;;;;;;;;;;;7.08;72.68;98681.13;5080359;28;19923;-62
2023/04/09 00:35:55;;;;;;;;;;;;;;;7.00;73.16;98684.38;5082747;28;20611;-60
2023/04/09 00:38:24;;;;;;;;;;;;;;;7.10;72.21;98684.38;5084403;28;19924;-60
2023/04/09 00:40:52;;;;;;;;;;;;;;;6.92;73.13;98687.59;5090789;28;19968;-61
2023/04/09 00:43:20;;;;;;;;;;;;;;;6.93;73.05;98687.34;5066022;28;19932;-59
2023/04/09 00:45:48;;;;;;;;;;;;;;;7.00;73.38;98687.06;5064454;28;19931;-60
2023/04/09 00:48:16;;;;;;;;;;;;;;;7.12;72.39;98684.09;5087368;28;19924;-60
2023/04/09 00:50:44;;;;;;;;;;;;;;;7.15;71.79;98692.50;5054918;28;19924;-60
2023/04/09 00:53:12;;;;;;;;;;;;;;;7.11;72.71;98688.69;5067857;28;20228;-63
2023/04/09 00:55:41;;;;;;;;;;;;;;;7.07;72.37;98684.91;5073056;28;19993;-63
2023/04/09 00:58:09;;;;;;;;;;;;;;;6.92;72.77;98687.59;5080387;28;19931;-60
2023/04/09 01:00:37;;;;;;;;;;;;;;;6.92;73.15;98683.00;5089239;28;19928;-60
2023/04/09 01:03:05;;;;;;;;;;;;;;;6.91;73.43;98688.69;5093276;28;19949;-60
2023/04/09 01:05:38;;;;;;;;;;;;;;;7.18;72.47;98681.13;5090738;28;20334;-60
2023/04/09 01:08:08;;;;;;;;;;;;;;;7.14;72.46;98685.47;5072467;28;19924;-60
2023/04/09 01:10:38;;;;;;;;;;;;;;;7.01;72.04;98678.69;5070377;28;19933;-60
2023/04/09 01:13:08;;;;;;;;;;;;;;;7.02;72.67;98676.78;5086818;28;19931;-65
2023/04/09 01:15:38;;;;;;;;;;;;;;;7.08;72.44;98681.13;5078839;28;19936;-62
2023/04/09 01:18:10;;;;;;;;;;;;;;;6.89;73.34;98678.16;5089976;28;19924;-60
2023/04/09 01:20:39;;;;;;;;;;;;;;;6.87;72.82;98684.88;5068403;28;19931;-60
2023/04/09 01:23:11;;;;;;;;;;;;;;;6.81;73.56;98676.78;5086757;28;19932;-60
2023/04/09 01:25:43;;;;;;;;;;;;;;;6.83;73.41;98668.41;5071573;28;19962;-61
2023/04/09 01:28:15;;;;;;;;;;;;;;;6.78;73.64;98665.72;5081860;28;19981;-59
2023/04/09 01:30:45;;;;;;;;;;;;;;;6.77;73.30;98675.72;5063320;28;19924;-60
2023/04/09 01:33:14;;;;;;;;;;;;;;;6.97;72.87;98677.59;5096865;28;19934;-61
2023/04/09 01:35:42;;;;;;;;;;;;;;;6.86;73.29;98675.16;5077478;28;20552;-60
2023/04/09 01:38:10;;;;;;;;;;;;;;;6.89;73.22;98671.94;5091078;28;20339;-60
2023/04/09 01:40:39;;;;;;;;;;;;;;;6.79;73.52;98672.72;5070658;28;19928;-60
2023/04/09 01:43:07;;;;;;;;;;;;;;;6.73;73.77;98671.91;5090752;28;19931;-59
2023/04/09 01:45:36;;;;;;;;;;;;;;;6.70;73.69;98675.13;5086835;28;19923;-60
2023/04/09 01:48:04;;;;;;;;;;;;;;;6.64;74.50;98676.19;5092773;28;19932;-62
2023/04/09 01:50:32;;;;;;;;;;;;;;;6.58;74.48;98674.56;5090928;28;19924;-60
2023/04/09 01:53:00;;;;;;;;;;;;;;;6.65;74.78;98682.41;5071448;28;19932;-60
2023/04/09 01:55:28;;;;;;;;;;;;;;;6.62;74.54;98672.97;5076209;28;20382;-60
2023/04/09 01:57:56;;;;;;;;;;;;;;;6.70;74.37;98674.31;5082810;28;20034;-60
2023/04/09 02:00:23;;;;;;;;;;;;;;;6.68;74.54;98681.88;5070734;28;20331;-60
2023/04/09 02:02:55;;;;;;;;;;;;;;;6.58;75.07;98682.69;5094997;28;20384;-63
2023/04/09 02:05:25;;;;;;;;;;;;;;;6.64;74.68;98694.28;5084768;28;19970;-59
2023/04/09 02:07:54;;;;;;;;;;;;;;;6.56;75.22;98690.25;5098864;28;20018;-64
2023/04/09 02:10:22;;;;;;;;;;;;;;;6.64;75.21;98692.41;5073321;28;20344;-61
2023/04/09 02:12:51;;;;;;;;;;;;;;;6.62;74.93;98694.56;5083739;28;19931;-59
2023/04/09 02:15:19;;;;;;;;;;;;;;;6.66;75.16;98687.56;5077939;28;19924;-61
2023/04/09 02:17:46;;;;;;;;;;;;;;;6.59;75.67;98695.09;5095908;28;19924;-59
2023/04/09 02:20:17;;;;;;;;;;;;;;;6.46;76.04;98688.31;5090383;28;19967;-61
2023/04/09 02:22:46;;;;;;;;;;;;;;;6.48;76.43;98688.84;5099046;28;19934;-62
2023/04/09 02:25:14;;;;;;;;;;;;;;;6.40;76.49;98685.88;5085301;28;19979;-60
2023/04/09 02:27:42;;;;;;;;;;;;;;;6.33;76.71;98686.09;5090528;28;19975;-59
2023/04/09 02:30:11;;;;;;;;;;;;;;;6.30;77.30;98687.44;5064809;28;19978;-61
2023/04/09 02:32:38;;;;;;;;;;;;;;;6.42;77.08;98684.50;5084657;28;20015;-60
2023/04/09 02:35:07;;;;;;;;;;;;;;;6.35;76.58;98683.97;5089277;28;19927;-60
2023/04/09 02:37:36;;;;;;;;;;;;;;;6.24;77.10;98688.50;5085881;28;19928;-60
2023/04/09 02:40:05;;;;;;;;;;;;;;;6.14;77.88;98691.16;5087479;28;20307;-59
2023/04/09 02:42:32;;;;;;;;;;;;;;;6.19;77.46;98683.09;5089152;28;19935;-60
2023/04/09 02:45:00;;;;;;;;;;;;;;;5.98;78.08;98684.06;5069240;28;20019;-59
2023/04/09 02:47:31;;;;;;;;;;;;;;;5.92;78.40;98691.34;5069158;28;19928;-59
2023/04/09 02:49:59;;;;;;;;;;;;;;;6.00;78.09;98695.41;5069510;28;19924;-60
2023/04/09 02:52:30;;;;;;;;;;;;;;;5.85;78.15;98693.41;5070693;28;19934;-60
2023/04/09 02:55:01;;;;;;;;;;;;;;;5.90;78.45;98688.03;5085627;28;19924;-59
2023/04/09 02:57:29;;;;;;;;;;;;;;;5.83;78.41;98692.06;5075248;28;19931;-59
2023/04/09 02:59:57;;;;;;;;;;;;;;;5.81;78.34;98688.81;5072089;28;19928;-60
2023/04/09 03:02:25;;;;;;;;;;;;;;;5.77;78.44;98688.50;5077708;28;20032;-59
2023/04/09 03:04:53;;;;;;;;;;;;;;;5.76;78.22;98689.59;5063936;28;19982;-60
2023/04/09 03:07:21;;;;;;;;;;;;;;;5.70;78.16;98683.34;5070005;28;19946;-60
2023/04/09 03:09:49;;;;;;;;;;;;;;;5.65;78.60;98677.94;5068580;28;19932;-59
2023/04/09 03:12:18;;;;;;;;;;;;;;;5.61;78.88;98678.72;5090394;28;19928;-60
2023/04/09 03:14:46;;;;;;;;;;;;;;;5.61;78.76;98684.91;5083684;28;19931;-59
2023/04/09 03:17:14;;;;;;;;;;;;;;;5.59;78.96;98670.06;5078326;28;19931;-60
2023/04/09 03:19:42;;;;;;;;;;;;;;;5.60;78.73;98682.47;5084424;28;19932;-61
2023/04/09 03:22:10;;;;;;;;;;;;;;;5.55;78.87;98683.25;5086583;28;20359;-60
2023/04/09 03:24:38;;;;;;;;;;;;;;;5.52;79.10;98686.47;5083748;28;19924;-60
2023/04/09 03:27:06;;;;;;;;;;;;;;;5.48;79.42;98691.53;5088598;28;19924;-60
2023/04/09 03:29:35;;;;;;;;;;;;;;;5.38;79.23;98687.97;5106271;28;19924;-59
2023/04/09 03:32:04;;;;;;;;;;;;;;;5.40;79.09;98683.16;5083174;28;19981;-59
2023/04/09 03:34:34;;;;;;;;;;;;;;;5.32;79.43;98683.63;5088620;28;20339;-59
2023/04/09 03:37:02;;;;;;;;;;;;;;;5.39;79.82;98692.31;5105969;28;19924;-65
2023/04/09 03:39:31;;;;;;;;;;;;;;;5.45;79.55;98691.28;5085342;28;19956;-59
2023/04/09 03:42:00;;;;;;;;;;;;;;;5.32;79.43;98691.69;5087261;28;19969;-59
2023/04/09 03:44:33;;;;;;;;;;;;;;;5.20;80.22;98695.38;5090755;28;19924;-65
2023/04/09 03:47:20;;;;;;;;;;;;;;;5.09;80.48;98690.16;5084194;28;21324;-60
2023/04/09 03:49:49;;;;;;;;;;;;;;;4.99;80.68;98693.59;5088352;28;19927;-63
2023/04/09 03:52:22;;;;;;;;;;;;;;;5.17;80.09;98690.53;5087486;28;19924;-60
2023/04/09 03:55:00;;;;;;;;;;;;;;;5.03;80.41;98693.91;5084999;28;20350;-59
2023/04/09 03:57:29;;;;;;;;;;;;;;;5.03;80.27;98694.69;5092427;28;20393;-60
2023/04/09 03:59:58;;;;;;;;;;;;;;;5.07;80.00;98701.22;5087200;28;20327;-64
2023/04/09 04:02:32;;;;;;;;;;;;;;;5.00;80.48;98700.59;5085055;28;19962;-60
2023/04/09 04:05:03;;;;;;;;;;;;;;;4.95;80.41;98698.69;5090288;28;19938;-62
2023/04/09 04:07:37;;;;;;;;;;;;;;;4.90;80.42;98706.72;5085168;28;19934;-60
2023/04/09 04:10:10;;;;;;;;;;;;;;;4.81;80.97;98702.03;5086240;28;20466;-61
2023/04/09 04:12:44;;;;;;;;;;;;;;;4.87;80.38;98695.63;5094814;28;20053;-60
2023/04/09 04:15:21;;;;;;;;;;;;;;;4.73;80.78;98704.09;5076704;28;19980;-60
2023/04/09 04:17:55;;;;;;;;;;;;;;;4.76;80.59;98704.69;5084538;28;19995;-63
2023/04/09 04:20:40;;;;;;;;;;;;;;;4.86;79.97;98704.78;5090766;28;19932;-60
2023/04/09 04:23:12;;;;;;;;;;;;;;;4.79;80.00;98701.47;5099220;28;19928;-65
2023/04/09 04:25:48;;;;;;;;;;;;;;;4.66;80.45;98708.06;5068860;28;19924;-60
2023/04/09 04:28:24;;;;;;;;;;;;;;;4.65;80.44;98715.34;5055795;28;19925;-59
2023/04/09 04:30:52;;;;;;;;;;;;;;;4.46;81.17;98709.47;5077616;28;19924;-63
2023/04/09 04:33:21;;;;;;;;;;;;;;;4.45;80.92;98725.88;5083425;28;20384;-60
2023/04/09 04:35:52;;;;;;;;;;;;;;;4.56;80.79;98716.84;5068663;28;19932;-62
2023/04/09 04:38:32;;;;;;;;;;;;;;;4.66;79.99;98718.84;5062834;28;19968;-59
2023/04/09 04:41:03;;;;;;;;;;;;;;;4.37;80.56;98720.94;5089966;28;19935;-60
2023/04/09 04:43:34;;;;;;;;;;;;;;;4.44;80.42;98714.28;5079480;28;19924;-63
2023/04/09 04:46:05;;;;;;;;;;;;;;;4.52;79.69;98734.56;5063442;28;19924;-64
2023/04/09 04:48:34;;;;;;;;;;;;;;;4.42;79.67;98731.75;5087640;28;19924;-63
2023/04/09 04:51:02;;;;;;;;;;;;;;;4.59;79.07;98731.69;5071969;28;20327;-60
2023/04/09 04:53:39;;;;;;;;;;;;;;;4.45;79.33;98733.94;5078647;28;19925;-61
2023/04/09 04:56:12;;;;;;;;;;;;;;;4.46;79.18;98733.69;5079154;28;19958;-63
2023/04/09 04:58:47;;;;;;;;;;;;;;;4.39;79.67;98735.75;5067281;28;20023;-60
2023/04/09 05:01:18;;;;;;;;;;;;;;;4.37;79.47;98739.78;5083897;28;19984;-61
2023/04/09 05:03:48;;;;;;;;;;;;;;;4.32;79.82;98734.34;5073623;28;19935;-61
2023/04/09 05:06:30;;;;;;;;;;;;;;;4.41;79.01;98738.19;5070292;28;20404;-60
2023/04/09 05:09:00;;;;;;;;;;;;;;;4.46;78.56;98733.69;5063749;28;19939;-62
2023/04/09 05:11:36;;;;;;;;;;;;;;;4.50;78.89;98734.00;5065245;28;19981;-65
2023/04/09 05:14:08;;;;;;;;;;;;;;;4.59;77.75;98735.19;5067456;28;19928;-65
2023/04/09 05:16:36;;;;;;;;;;;;;;;4.53;78.01;98741.59;5082691;28;19924;-64
2023/04/09 05:19:07;;;;;;;;;;;;;;;4.63;78.03;98732.78;5089695;28;19929;-64
2023/04/09 05:21:38;;;;;;;;;;;;;;;4.87;77.15;98736.84;5073997;28;19952;-64
2023/04/09 05:24:07;;;;;;;;;;;;;;;4.76;76.96;98737.78;5099025;28;19927;-64
2023/04/09 05:26:35;;;;;;;;;;;;;;;4.61;77.26;98746.50;5086890;28;20400;-64
2023/04/09 05:29:02;;;;;;;;;;;;;;;4.67;77.17;98744.69;5107123;27;19931;-64
2023/04/09 05:31:31;;;;;;;;;;;;;;;4.88;76.11;98741.16;5100830;28;20010;-66
2023/04/09 05:34:04;;;;;;;;;;;;;;;4.86;76.00;98745.97;5093001;28;19924;-66
2023/04/09 05:36:44;;;;;;;;;;;;;;;4.98;75.33;98743.94;5096795;28;19928;-65
2023/04/09 05:39:12;;;;;;;;;;;;;;;4.99;75.41;98742.06;5105968;28;19928;-65
2023/04/09 05:41:40;;;;;;;;;;;;;;;5.10;74.92;98746.47;5106501;28;19932;-65
2023/04/09 05:44:37;;;;;;;;;;;;;;;5.06;75.33;98741.84;5093123;28;19928;-65
2023/04/09 05:47:11;;;;;;;;;;;;;;;5.20;74.78;98746.56;5083522;28;19927;-65
2023/04/09 05:49:48;;;;;;;;;;;;;;;5.12;74.82;98741.66;5094027;28;19928;-66
2023/04/09 05:52:20;;;;;;;;;;;;;;;5.22;74.20;98746.34;5094732;28;19924;-66
2023/04/09 05:54:50;;;;;;;;;;;;;;;5.13;74.34;98745.97;5078921;28;20357;-65
2023/04/09 05:57:24;;;;;;;;;;;;;;;5.24;74.28;98745.00;5080899;28;19924;-66
2023/04/09 05:59:57;;;;;;;;;;;;;;;5.61;72.63;98741.53;5078021;28;19932;-65
2023/04/09 06:02:25;;;;;;;;;;;;;;;5.49;73.09;98740.91;5106424;27;19928;-66
2023/04/09 06:04:53;;;;;;;;;;;;;;;5.43;73.78;98748.13;5088571;28;20285;-66
2023/04/09 06:07:23;;;;;;;;;;;;;;;5.48;73.88;98747.34;5090935;28;19928;-67
2023/04/09 06:09:51;;;;;;;;;;;;;;;5.77;73.06;98747.84;5105569;28;20244;-66
2023/04/09 06:12:19;;;;;;;;;;;;;;;5.75;72.46;98750.81;5107900;28;19927;-66
2023/04/09 06:14:47;;;;;;;;;;;;;;;5.84;72.46;98748.41;5091117;27;20437;-67
2023/04/09 06:17:15;;;;;;;;;;;;;;;6.12;71.31;98749.94;5101894;28;20331;-67
2023/04/09 06:19:43;;;;;;;;;;;;;;;5.93;71.91;98759.56;5109350;28;19981;-67
2023/04/09 06:22:11;;;;;;;;;;;;;;;6.03;71.31;98762.34;5107608;27;19928;-66
2023/04/09 06:24:42;;;;;;;;;;;;;;;6.25;70.62;98754.88;5101053;28;19924;-66
2023/04/09 06:27:10;;;;;;;;;;;;;;;6.44;70.26;98759.81;5107133;27;19976;-67
2023/04/09 06:29:38;;;;;;;;;;;;;;;6.59;69.28;98756.38;5071379;28;19977;-67
2023/04/09 06:32:06;;;;;;;;;;;;;;;6.47;69.51;98756.59;5095474;28;20042;-66
2023/04/09 06:34:34;;;;;;;;;;;;;;;6.36;70.04;98761.16;5090998;28;19928;-66
2023/04/09 06:37:02;;;;;;;;;;;;;;;6.51;70.00;98768.50;5103847;28;19932;-66
2023/04/09 06:39:30;;;;;;;;;;;;;;;6.64;69.04;98762.59;5089280;28;19943;-66
2023/04/09 06:41:59;;;;;;;;;;;;;;;6.53;70.16;98777.16;5106214;27;19932;-66
2023/04/09 06:44:42;;;;;;;;;;;;;;;6.56;69.39;98782.03;5104342;28;19932;-67
2023/04/09 06:47:10;;;;;;;;;;;;;;;6.83;68.95;98771.06;5102697;28;19927;-66
2023/04/09 06:49:38;;;;;;;;;;;;;;;7.04;68.35;98771.91;5092881;28;19931;-66
2023/04/09 06:52:06;;;;;;;;;;;;;;;7.28;67.58;98772.22;5090325;28;19928;-67
2023/04/09 06:54:33;;;;;;;;;;;;;;;7.32;66.12;98779.53;5096448;28;20023;-67
2023/04/09 06:57:03;;;;;;;;;;;;;;;7.35;66.74;98768.19;5104525;28;19923;-66
2023/04/09 06:59:31;;;;;;;;;;;;;;;7.58;65.87;98776.84;5095672;28;19931;-66
2023/04/09 07:01:58;;;;;;;;;;;;;;;7.66;65.42;98776.28;5078168;28;19935;-66
2023/04/09 07:04:26;;;;;;;;;;;;;;;7.78;65.19;98776.84;5091825;28;19923;-66
2023/04/09 07:06:55;;;;;;;;;;;;;;;7.93;64.61;98780.59;5094993;27;19924;-66
2023/04/09 07:09:23;;;;;;;;;;;;;;;8.04;64.36;98785.75;5091285;28;19939;-67
2023/04/09 07:11:51;;;;;;;;;;;;;;;8.12;63.96;98779.75;5092549;28;19928;-66
2023/04/09 07:14:20;;;;;;;;;;;;;;;8.27;62.91;98773.50;5094028;28;19924;-66
2023/04/09 07:16:48;;;;;;;;;;;;;;;8.37;62.42;98773.50;5089269;28;20022;-66
2023/04/09 07:19:16;;;;;;;;;;;;;;;8.42;62.16;98769.97;5096544;28;19965;-67
2023/04/09 07:21:45;;;;;;;;;;;;;;;8.45;62.08;98779.44;5069196;28;19928;-66
2023/04/09 07:24:13;;;;;;;;;;;;;;;8.56;60.96;98781.00;5076678;28;19924;-66
2023/04/09 07:26:41;;;;;;;;;;;;;;;8.67;60.69;98774.47;5083699;28;19994;-67
2023/04/09 07:29:09;;;;;;;;;;;;;;;8.88;60.98;98775.19;5087851;28;19924;-66
2023/04/09 07:31:38;;;;;;;;;;;;;;;9.09;60.80;98778.59;5073676;28;19928;-66
2023/04/09 07:34:06;;;;;;;;;;;;;;;9.26;59.75;98783.63;5059917;28;20027;-65
2023/04/09 07:36:33;;;;;;;;;;;;;;;9.30;59.69;98780.09;5085685;28;19939;-66
2023/04/09 07:39:01;;;;;;;;;;;;;;;9.55;58.98;98781.81;5081706;28;20373;-66
2023/04/09 07:41:30;;;;;;;;;;;;;;;9.58;57.94;98780.44;5083946;28;19977;-66
2023/04/09 07:44:02;;;;;;;;;;;;;;;9.70;57.50;98779.00;5068607;28;19947;-65
2023/04/09 07:46:30;;;;;;;;;;;;;;;9.86;57.07;98784.28;5066921;28;20011;-65
2023/04/09 07:48:59;;;;;;;;;;;;;;;9.95;55.96;98785.28;5085885;28;20320;-66
2023/04/09 07:51:27;;;;;;;;;;;;;;;9.91;56.11;98785.06;5074532;28;20328;-67
2023/04/09 07:53:54;;;;;;;;;;;;;;;9.89;56.43;98784.50;5074359;28;19924;-67
2023/04/09 07:56:22;;;;;;;;;;;;;;;9.95;56.00;98786.06;5074992;28;19936;-68
2023/04/09 07:58:50;;;;;;;;;;;;;;;10.10;55.75;98790.56;5081596;28;19924;-67
2023/04/09 08:01:20;;;;;;;;;;;;;;;10.17;55.75;98790.22;5085027;28;19932;-68
2023/04/09 08:03:48;;;;;;;;;;;;;;;10.32;55.52;98787.38;5081190;28;19925;-68
2023/04/09 08:06:20;;;;;;;;;;;;;;;10.45;55.57;98786.69;5060142;28;19989;-67
2023/04/09 08:08:47;;;;;;;;;;;;;;;10.51;54.65;98792.06;5069865;28;20377;-68
2023/04/09 08:11:15;;;;;;;;;;;;;;;10.21;54.15;98791.25;5090878;28;19931;-67
2023/04/09 08:13:43;;;;;;;;;;;;;;;10.66;53.80;98797.34;5090107;28;19924;-69
2023/04/09 08:16:11;;;;;;;;;;;;;;;10.75;54.34;98788.22;5074416;28;19924;-68
2023/04/09 08:18:38;;;;;;;;;;;;;;;10.68;54.35;98797.84;5085024;28;19924;-68
2023/04/09 08:21:06;;;;;;;;;;;;;;;10.71;54.10;98791.84;5083961;28;19932;-67
2023/04/09 08:23:36;;;;;;;;;;;;;;;10.91;53.22;98791.56;5092007;28;19924;-68
2023/04/09 08:26:04;;;;;;;;;;;;;;;10.77;52.88;98787.97;5101163;28;19963;-67
2023/04/09 08:28:32;;;;;;;;;;;;;;;10.97;53.09;98795.03;5081661;28;19935;-68
2023/04/09 08:31:00;;;;;;;;;;;;;;;10.85;52.29;98787.28;5101761;27;19931;-68
2023/04/09 08:33:29;;;;;;;;;;;;;;;11.03;52.84;98788.44;5099143;28;19932;-68
2023/04/09 08:35:56;;;;;;;;;;;;;;;11.23;51.72;98784.59;5102294;28;19931;-68
2023/04/09 08:38:24;;;;;;;;;;;;;;;11.05;51.71;98786.22;5110677;28;19924;-68
2023/04/09 08:40:53;;;;;;;;;;;;;;;11.13;51.49;98784.75;5107766;28;19931;-69
2023/04/09 08:43:21;;;;;;;;;;;;;;;11.26;51.40;98779.41;5098455;28;20284;-66
2023/04/09 08:45:52;;;;;;;;;;;;;;;11.21;50.69;98784.91;5100861;27;20208;-66
2023/04/09 08:48:20;;;;;;;;;;;;;;;11.37;50.43;98788.22;5090726;28;19968;-66
2023/04/09 08:50:49;;;;;;;;;;;;;;;11.50;50.28;98783.94;5104281;28;19923;-66
2023/04/09 08:53:18;;;;;;;;;;;;;;;11.75;49.59;98782.72;5105908;28;20403;-66
2023/04/09 08:55:46;;;;;;;;;;;;;;;11.53;49.60;98784.16;5076811;28;20400;-66
2023/04/09 08:58:15;;;;;;;;;;;;;;;11.52;48.93;98779.03;5100982;28;19938;-66
2023/04/09 09:00:43;;;;;;;;;;;;;;;11.64;49.13;98773.13;5094248;28;19933;-66
2023/04/09 09:03:11;;;;;;;;;;;;;;;11.89;49.64;98777.38;5103410;28;20024;-66
2023/04/09 09:05:40;;;;;;;;;;;;;;;11.73;48.53;98777.59;5097463;28;19934;-66
2023/04/09 09:08:08;;;;;;;;;;;;;;;11.89;47.84;98778.19;5099960;28;19939;-66
2023/04/09 09:10:40;;;;;;;;;;;;;;;12.11;47.83;98773.97;5108514;28;19928;-67
2023/04/09 09:13:18;;;;;;;;;;;;;;;12.06;48.01;98783.84;5102938;27;19931;-66
2023/04/09 09:15:49;;;;;;;;;;;;;;;11.90;48.34;98776.25;5081659;28;19924;-67
2023/04/09 09:18:17;;;;;;;;;;;;;;;11.46;49.02;98780.22;5089342;27;19932;-67
2023/04/09 09:20:45;;;;;;;;;;;;;;;11.15;49.58;98775.22;5116322;27;19924;-67
2023/04/09 09:23:12;;;;;;;;;;;;;;;10.90;50.41;98776.34;5095658;27;20711;-67
2023/04/09 09:25:40;;;;;;;;;;;;;;;10.76;51.21;98783.63;5102603;28;19928;-67
2023/04/09 09:28:08;;;;;;;;;;;;;;;10.75;49.89;98782.78;5106780;28;19924;-67
2023/04/09 09:30:38;;;;;;;;;;;;;;;10.84;50.02;98782.97;5100650;28;19955;-67
2023/04/09 09:33:07;;;;;;;;;;;;;;;11.24;49.06;98778.09;5107843;27;19930;-68
2023/04/09 09:35:48;;;;;;;;;;;;;;;11.42;48.44;98769.09;5105119;28;19924;-67
2023/04/09 09:38:17;;;;;;;;;;;;;;;11.62;48.31;98764.44;5105768;27;19931;-67
2023/04/09 09:40:47;;;;;;;;;;;;;;;11.69;48.21;98767.59;5105725;27;19959;-67
2023/04/09 09:43:15;;;;;;;;;;;;;;;11.91;48.06;98765.06;5085721;28;20046;-67
2023/04/09 09:45:45;;;;;;;;;;;;;;;11.95;48.61;98768.81;5097945;27;19931;-67
2023/04/09 09:48:14;;;;;;;;;;;;;;;11.82;48.28;98772.28;5101047;28;19932;-66
2023/04/09 09:50:42;;;;;;;;;;;;;;;11.64;47.56;98770.41;5106038;27;19951;-65
2023/04/09 09:53:10;;;;;;;;;;;;;;;11.30;46.85;98776.09;5090566;28;19977;-65
2023/04/09 09:55:38;;;;;;;;;;;;;;;11.19;47.35;98783.59;5099315;28;19924;-64
2023/04/09 09:58:10;;;;;;;;;;;;;;;11.07;48.13;98777.78;5109606;28;19976;-66
2023/04/09 10:00:38;;;;;;;;;;;;;;;11.00;48.80;98775.41;5101675;28;19924;-66
2023/04/09 10:03:11;;;;;;;;;;;;;;;11.45;48.21;98773.97;5100918;28;20364;-66
2023/04/09 10:05:39;;;;;;;;;;;;;;;12.02;47.09;98774.66;5087505;28;20010;-66
2023/04/09 10:08:07;;;;;;;;;;;;;;;12.09;45.11;98770.75;5109110;28;19923;-67
2023/04/09 10:10:36;;;;;;;;;;;;;;;11.97;45.52;98761.13;5100924;28;19924;-65
2023/04/09 10:13:05;;;;;;;;;;;;;;;11.77;45.89;98764.16;5111026;28;19928;-67
2023/04/09 10:15:33;;;;;;;;;;;;;;;11.44;45.84;98756.00;5101143;27;19924;-67
2023/04/09 10:18:00;;;;;;;;;;;;;;;11.50;45.69;98760.28;5104526;27;19942;-67
2023/04/09 10:20:32;;;;;;;;;;;;;;;12.10;45.21;98756.03;5110647;27;20301;-67
2023/04/09 10:23:01;;;;;;;;;;;;;;;12.33;43.50;98752.31;5105233;27;20644;-67
2023/04/09 10:25:28;;;;;;;;;;;;;;;12.51;43.70;98745.94;5113031;27;19927;-66
2023/04/09 10:27:59;;;;;;;;;;;;;;;12.56;42.96;98743.13;5105456;28;20408;-67
2023/04/09 10:30:34;;;;;;;;;;;;;;;12.81;43.17;98738.25;5102584;28;20002;-67
2023/04/09 10:33:09;;;;;;;;;;;;;;;13.13;42.42;98736.47;5099765;28;19928;-66
2023/04/09 10:35:38;;;;;;;;;;;;;;;12.73;41.89;98752.59;5091669;27;19973;-67
2023/04/09 10:38:09;;;;;;;;;;;;;;;12.50;42.47;98751.72;5118100;27;20291;-66
2023/04/09 10:40:41;;;;;;;;;;;;;;;12.22;43.08;98746.25;5113097;27;19931;-66
2023/04/09 10:43:09;;;;;;;;;;;;;;;12.32;41.89;98747.97;5107479;28;20033;-66
2023/04/09 10:45:41;;;;;;;;;;;;;;;12.14;41.80;98738.75;5101642;28;19931;-64
2023/04/09 10:48:13;;;;;;;;;;;;;;;12.01;42.93;98745.81;5089330;28;19924;-66
2023/04/09 10:50:44;;;;;;;;;;;;;;;11.84;41.79;98742.88;5086494;28;19930;-65
2023/04/09 10:53:21;;;;;;;;;;;;;;;11.52;40.68;98743.66;5094314;28;19935;-66
2023/04/09 10:55:49;;;;;;;;;;;;;;;11.40;38.51;98738.66;5099636;28;19931;-67
2023/04/09 10:58:17;;;;;;;;;;;;;;;11.49;38.85;98738.78;5102499;28;19976;-67
2023/04/09 11:00:45;;;;;;;;;;;;;;;11.65;38.35;98736.63;5101415;28;19924;-66
2023/04/09 11:03:19;;;;;;;;;;;;;;;11.66;39.21;98741.75;5100483;28;20384;-66
2023/04/09 11:05:49;;;;;;;;;;;;;;;11.82;38.94;98728.72;5100583;28;20385;-67
2023/04/09 11:08:17;;;;;;;;;;;;;;;12.20;38.89;98734.06;5102282;28;20372;-66
2023/04/09 11:10:46;;;;;;;;;;;;;;;12.31;38.62;98730.81;5100428;28;19928;-66
2023/04/09 11:13:16;;;;;;;;;;;;;;;12.48;37.95;98730.22;5086357;28;19927;-65
2023/04/09 11:15:44;;;;;;;;;;;;;;;12.73;37.22;98728.06;5085489;28;19923;-66
2023/04/09 11:18:15;;;;;;;;;;;;;;;12.97;36.21;98725.09;5103512;28;19928;-66
2023/04/09 11:20:43;;;;;;;;;;;;;;;12.95;34.85;98736.31;5093073;28;19928;-66
2023/04/09 11:23:12;;;;;;;;;;;;;;;13.18;34.35;98730.91;5110395;28;19935;-69
2023/04/09 11:25:40;;;;;;;;;;;;;;;13.43;35.36;98727.59;5114520;28;19931;-69
2023/04/09 11:28:08;;;;;;;;;;;;;;;13.40;34.90;98722.75;5110116;28;19928;-69
2023/04/09 11:30:37;;;;;;;;;;;;;;;13.30;34.45;98718.34;5092753;28;19923;-64
2023/04/09 11:33:07;;;;;;;;;;;;;;;13.07;34.41;98713.97;5089828;28;19939;-65
2023/04/09 11:35:36;;;;;;;;;;;;;;;13.21;34.29;98714.75;5107058;28;19932;-66
2023/04/09 11:38:06;;;;;;;;;;;;;;;12.90;35.19;98713.81;5106928;28;19923;-66
2023/04/09 11:40:42;;;;;;;;;;;;;;;12.69;36.02;98719.69;5112696;28;20384;-66
2023/04/09 11:43:10;;;;;;;;;;;;;;;12.48;37.01;98719.31;5110968;28;19939;-66
2023/04/09 11:45:39;;;;;;;;;;;;;;;12.28;37.02;98725.16;5102006;28;20379;-65
2023/04/09 11:48:07;;;;;;;;;;;;;;;12.21;38.01;98720.13;5107102;27;19924;-66
2023/04/09 11:50:35;;;;;;;;;;;;;;;12.21;38.53;98719.31;5116846;28;19963;-66
2023/04/09 11:53:15;;;;;;;;;;;;;;;12.23;38.28;98711.63;5109550;27;19935;-66
2023/04/09 11:55:46;;;;;;;;;;;;;;;12.69;38.05;98713.44;5111775;27;19935;-66
2023/04/09 11:58:14;;;;;;;;;;;;;;;12.95;36.99;98702.78;5113346;27;19923;-65
2023/04/09 12:00:42;;;;;;;;;;;;;;;13.30;37.05;98706.63;5104145;28;19924;-66
2023/04/09 12:03:10;;;;;;;;;;;;;;;13.48;36.90;98708.38;5105423;28;20339;-66
2023/04/09 12:05:38;;;;;;;;;;;;;;;13.73;36.38;98714.28;5103664;28;19934;-66
2023/04/09 12:08:09;;;;;;;;;;;;;;;13.77;36.16;98715.28;5114002;28;19924;-66
2023/04/09 12:10:37;;;;;;;;;;;;;;;13.96;36.20;98713.16;5109066;28;19969;-65
2023/04/09 12:13:09;;;;;;;;;;;;;;;13.91;36.35;98707.81;5103700;28;19932;-66
2023/04/09 12:15:37;;;;;;;;;;;;;;;12.91;36.32;98615.31;5104497;28;19928;-66
2023/04/09 12:18:07;;;;;;;;;;;;;;;13.39;36.32;98709.44;5105369;27;20364;-65
2023/04/09 12:20:38;;;;;;;;;;;;;;;13.63;36.42;98708.00;5099895;27;19932;-66
2023/04/09 12:23:06;;;;;;;;;;;;;;;13.51;36.76;98704.19;5103789;28;19939;-66
2023/04/09 12:25:35;;;;;;;;;;;;;;;13.54;35.45;98703.59;5108686;28;19931;-68
2023/04/09 12:28:03;;;;;;;;;;;;;;;13.63;35.26;98699.81;5101962;28;19928;-67
2023/04/09 12:30:32;;;;;;;;;;;;;;;13.46;35.38;98699.66;5113744;27;19931;-66
2023/04/09 12:33:00;;;;;;;;;;;;;;;13.48;35.46;98702.09;5112367;28;19924;-64
2023/04/09 12:35:28;;;;;;;;;;;;;;;13.40;35.69;98706.38;5112279;27;20791;-66
2023/04/09 12:37:58;;;;;;;;;;;;;;;13.43;35.85;98700.31;5106929;28;19927;-66
2023/04/09 12:40:26;;;;;;;;;;;;;;;13.54;35.35;98701.66;5094362;28;20388;-67
2023/04/09 12:42:55;;;;;;;;;;;;;;;13.53;35.80;98710.16;5111222;28;19935;-66
2023/04/09 12:45:23;;;;;;;;;;;;;;;13.42;36.62;98700.59;5094209;28;20396;-65
2023/04/09 12:47:53;;;;;;;;;;;;;;;13.37;36.22;98698.81;5103237;28;20295;-63
2023/04/09 12:50:20;;;;;;;;;;;;;;;13.28;36.49;98700.69;5106476;28;19924;-66
2023/04/09 12:52:49;;;;;;;;;;;;;;;13.23;36.80;98698.06;5107291;28;19923;-67
2023/04/09 12:55:17;;;;;;;;;;;;;;;13.14;36.43;98694.44;5105563;28;19985;-66
2023/04/09 12:57:45;;;;;;;;;;;;;;;13.27;37.67;98688.16;5106341;28;19932;-64
2023/04/09 13:00:14;;;;;;;;;;;;;;;13.21;37.63;98690.19;5098905;28;19955;-64
2023/04/09 13:02:42;;;;;;;;;;;;;;;13.25;38.07;98687.63;5106691;28;20274;-66
2023/04/09 13:05:11;;;;;;;;;;;;;;;13.28;37.49;98693.28;5117339;28;19932;-66